sensor_id;sensor_type;location;lat;lon;timestamp;temperature;humidity
75210;DHT22;63796;53.136;14.882;2022-12-18T00:01:22;-3.60;99.90
75210;DHT22;63796;53.136;14.882;2022-12-18T00:03:52;-3.60;99.90
75210;DHT22;63796;53.136;14.882;2022-12-18T00:06:21;-3.50;99.90
75210;DHT22;63796;53.136;14.882;2022-12-18T00:08:49;-3.50;99.90
75210;DHT22;63796;53.136;14.882;2022-12-18T00:11:19;-3.70;99.90
75210;DHT22;63796;53.136;14.882;2022-12-18T00:13:48;-3.70;99.90
75210;DHT22;63796;53.136;14.882;2022-12-18T00:16:21;-4.00;99.90
75210;DHT22;63796;53.136;14.882;2022-12-18T00:18:54;-3.80;99.90
75210;DHT22;63796;53.136;14.882;2022-12-18T00:21:19;-3.70;99.90
75210;DHT22;63796;53.136;14.882;2022-12-18T00:23:47;-3.50;99.90
75210;DHT22;63796;53.136;14.882;2022-12-18T00:26:24;-3.60;99.90
75210;DHT22;63796;53.136;14.882;2022-12-18T00:28:53;-3.50;99.90
75210;DHT22;63796;53.136;14.882;2022-12-18T00:31:24;-3.80;99.90
75210;DHT22;63796;53.136;14.882;2022-12-18T00:33:51;-3.70;99.90
75210;DHT22;63796;53.136;14.882;2022-12-18T00:36:22;-3.70;99.90
75210;DHT22;63796;53.136;14.882;2022-12-18T00:38:51;-3.60;99.90
75210;DHT22;63796;53.136;14.882;2022-12-18T00:41:20;-3.60;99.90
75210;DHT22;63796;53.136;14.882;2022-12-18T00:44:07;-3.70;99.90
75210;DHT22;63796;53.136;14.882;2022-12-18T00:46:36;-3.70;99.90
75210;DHT22;63796;53.136;14.882;2022-12-18T00:49:04;-3.60;99.90
75210;DHT22;63796;53.136;14.882;2022-12-18T00:51:31;-4.00;99.90
75210;DHT22;63796;53.136;14.882;2022-12-18T00:53:58;-3.90;99.90
75210;DHT22;63796;53.136;14.882;2022-12-18T00:56:25;-3.90;99.90
75210;DHT22;63796;53.136;14.882;2022-12-18T00:58:52;-3.80;99.90
75210;DHT22;63796;53.136;14.882;2022-12-18T01:01:19;-4.00;99.90
75210;DHT22;63796;53.136;14.882;2022-12-18T01:03:46;-3.90;99.90
75210;DHT22;63796;53.136;14.882;2022-12-18T01:06:14;-3.70;99.90
75210;DHT22;63796;53.136;14.882;2022-12-18T01:08:41;-3.70;99.90
75210;DHT22;63796;53.136;14.882;2022-12-18T01:11:11;-3.60;99.90
75210;DHT22;63796;53.136;14.882;2022-12-18T01:13:40;-3.60;99.90
75210;DHT22;63796;53.136;14.882;2022-12-18T01:16:10;-3.60;99.90
75210;DHT22;63796;53.136;14.882;2022-12-18T01:18:37;-3.70;99.90
75210;DHT22;63796;53.136;14.882;2022-12-18T01:21:09;-3.90;99.90
75210;DHT22;63796;53.136;14.882;2022-12-18T01:23:38;-3.80;99.90
75210;DHT22;63796;53.136;14.882;2022-12-18T01:26:07;-3.70;99.90
75210;DHT22;63796;53.136;14.882;2022-12-18T01:28:35;-3.70;99.90
75210;DHT22;63796;53.136;14.882;2022-12-18T01:31:28;-3.70;99.90
75210;DHT22;63796;53.136;14.882;2022-12-18T01:33:57;-3.60;99.90
75210;DHT22;63796;53.136;14.882;2022-12-18T01:36:31;-3.70;99.90
75210;DHT22;63796;53.136;14.882;2022-12-18T01:38:56;-3.90;99.90
75210;DHT22;63796;53.136;14.882;2022-12-18T01:41:29;-3.80;99.90
75210;DHT22;63796;53.136;14.882;2022-12-18T01:43:59;-3.90;99.90
75210;DHT22;63796;53.136;14.882;2022-12-18T01:46:27;-3.70;99.90
75210;DHT22;63796;53.136;14.882;2022-12-18T01:48:57;-3.60;99.90
75210;DHT22;63796;53.136;14.882;2022-12-18T01:51:26;-3.60;99.90
75210;DHT22;63796;53.136;14.882;2022-12-18T01:53:56;-3.60;99.90
75210;DHT22;63796;53.136;14.882;2022-12-18T01:56:24;-3.60;99.90
75210;DHT22;63796;53.136;14.882;2022-12-18T01:58:58;-3.40;99.90
75210;DHT22;63796;53.136;14.882;2022-12-18T02:01:30;-3.50;99.90
75210;DHT22;63796;53.136;14.882;2022-12-18T02:04:19;-3.50;99.90
75210;DHT22;63796;53.136;14.882;2022-12-18T02:06:55;-3.50;99.90
75210;DHT22;63796;53.136;14.882;2022-12-18T02:09:44;-3.40;99.90
75210;DHT22;63796;53.136;14.882;2022-12-18T02:12:23;-3.50;99.90
75210;DHT22;63796;53.136;14.882;2022-12-18T02:15:02;-3.50;99.90
75210;DHT22;63796;53.136;14.882;2022-12-18T02:17:39;-3.40;99.90
75210;DHT22;63796;53.136;14.882;2022-12-18T02:20:23;-3.50;99.90
75210;DHT22;63796;53.136;14.882;2022-12-18T02:23:18;-3.30;99.90
75210;DHT22;63796;53.136;14.882;2022-12-18T02:28:51;-3.30;99.90
75210;DHT22;63796;53.136;14.882;2022-12-18T02:31:25;-3.40;99.90
75210;DHT22;63796;53.136;14.882;2022-12-18T02:33:56;-3.50;99.90
75210;DHT22;63796;53.136;14.882;2022-12-18T02:36:27;-3.50;99.90
75210;DHT22;63796;53.136;14.882;2022-12-18T02:38:56;-3.50;99.90
75210;DHT22;63796;53.136;14.882;2022-12-18T02:41:25;-3.70;99.90
75210;DHT22;63796;53.136;14.882;2022-12-18T02:44:01;-3.80;99.90
75210;DHT22;63796;53.136;14.882;2022-12-18T02:46:33;-3.60;99.90
75210;DHT22;63796;53.136;14.882;2022-12-18T02:55:17;-3.50;99.90
75210;DHT22;63796;53.136;14.882;2022-12-18T02:57:59;-3.70;99.90
75210;DHT22;63796;53.136;14.882;2022-12-18T03:00:52;-4.00;99.90
75210;DHT22;63796;53.136;14.882;2022-12-18T03:03:48;-3.80;99.90
75210;DHT22;63796;53.136;14.882;2022-12-18T03:06:33;-3.70;99.90
75210;DHT22;63796;53.136;14.882;2022-12-18T03:09:00;-3.60;99.90
75210;DHT22;63796;53.136;14.882;2022-12-18T03:11:34;-3.70;99.90
75210;DHT22;63796;53.136;14.882;2022-12-18T03:14:23;-3.70;99.90
75210;DHT22;63796;53.136;14.882;2022-12-18T03:16:54;-3.70;99.90
75210;DHT22;63796;53.136;14.882;2022-12-18T03:19:27;-3.60;99.90
75210;DHT22;63796;53.136;14.882;2022-12-18T03:21:57;-3.70;99.90
75210;DHT22;63796;53.136;14.882;2022-12-18T03:24:28;-3.70;99.90
75210;DHT22;63796;53.136;14.882;2022-12-18T03:27:00;-3.70;99.90
75210;DHT22;63796;53.136;14.882;2022-12-18T03:29:35;-3.70;99.90
75210;DHT22;63796;53.136;14.882;2022-12-18T03:32:14;-3.70;99.90
75210;DHT22;63796;53.136;14.882;2022-12-18T03:34:40;-3.70;99.90
75210;DHT22;63796;53.136;14.882;2022-12-18T03:37:08;-3.70;99.90
75210;DHT22;63796;53.136;14.882;2022-12-18T03:39:37;-3.80;99.90
75210;DHT22;63796;53.136;14.882;2022-12-18T03:48:01;-3.60;99.90
75210;DHT22;63796;53.136;14.882;2022-12-18T03:50:42;-3.70;99.90
75210;DHT22;63796;53.136;14.882;2022-12-18T03:53:28;-3.50;99.90
75210;DHT22;63796;53.136;14.882;2022-12-18T03:56:08;-3.60;99.90
75210;DHT22;63796;53.136;14.882;2022-12-18T03:58:37;-3.80;99.90
75210;DHT22;63796;53.136;14.882;2022-12-18T04:01:07;-4.00;99.90
75210;DHT22;63796;53.136;14.882;2022-12-18T04:03:37;-3.90;99.90
75210;DHT22;63796;53.136;14.882;2022-12-18T04:06:05;-4.30;99.90
75210;DHT22;63796;53.136;14.882;2022-12-18T04:08:34;-4.20;99.90
75210;DHT22;63796;53.136;14.882;2022-12-18T04:11:02;-4.00;99.90
75210;DHT22;63796;53.136;14.882;2022-12-18T04:13:35;-3.80;99.90
75210;DHT22;63796;53.136;14.882;2022-12-18T04:16:03;-3.70;99.90
75210;DHT22;63796;53.136;14.882;2022-12-18T04:18:31;-3.60;99.90
75210;DHT22;63796;53.136;14.882;2022-12-18T04:20:57;-3.60;99.90
75210;DHT22;63796;53.136;14.882;2022-12-18T04:23:24;-3.60;99.90
75210;DHT22;63796;53.136;14.882;2022-12-18T04:25:51;-3.80;99.90
75210;DHT22;63796;53.136;14.882;2022-12-18T04:28:18;-4.00;99.90
75210;DHT22;63796;53.136;14.882;2022-12-18T04:30:44;-4.00;99.90
75210;DHT22;63796;53.136;14.882;2022-12-18T04:33:13;-3.80;99.90
75210;DHT22;63796;53.136;14.882;2022-12-18T04:35:40;-3.80;99.90
75210;DHT22;63796;53.136;14.882;2022-12-18T04:38:08;-3.80;99.90
75210;DHT22;63796;53.136;14.882;2022-12-18T04:40:39;-3.70;99.90
75210;DHT22;63796;53.136;14.882;2022-12-18T04:43:05;-3.90;99.90
75210;DHT22;63796;53.136;14.882;2022-12-18T04:45:32;-4.00;99.90
75210;DHT22;63796;53.136;14.882;2022-12-18T04:48:00;-3.90;99.90
75210;DHT22;63796;53.136;14.882;2022-12-18T04:50:28;-3.90;99.90
75210;DHT22;63796;53.136;14.882;2022-12-18T04:52:55;-3.80;99.90
75210;DHT22;63796;53.136;14.882;2022-12-18T04:55:22;-3.60;99.90
75210;DHT22;63796;53.136;14.882;2022-12-18T04:57:49;-3.80;99.90
75210;DHT22;63796;53.136;14.882;2022-12-18T05:00:16;-3.80;99.90
75210;DHT22;63796;53.136;14.882;2022-12-18T05:02:44;-3.70;99.90
75210;DHT22;63796;53.136;14.882;2022-12-18T05:05:11;-4.00;99.90
75210;DHT22;63796;53.136;14.882;2022-12-18T05:07:37;-3.90;99.90
75210;DHT22;63796;53.136;14.882;2022-12-18T05:10:05;-4.00;99.90
75210;DHT22;63796;53.136;14.882;2022-12-18T05:12:32;-3.90;99.90
75210;DHT22;63796;53.136;14.882;2022-12-18T05:15:00;-4.10;99.90
75210;DHT22;63796;53.136;14.882;2022-12-18T05:17:26;-4.40;99.90
75210;DHT22;63796;53.136;14.882;2022-12-18T05:19:53;-4.40;99.90
75210;DHT22;63796;53.136;14.882;2022-12-18T05:22:20;-4.40;99.90
75210;DHT22;63796;53.136;14.882;2022-12-18T05:24:47;-4.20;99.90
75210;DHT22;63796;53.136;14.882;2022-12-18T05:27:14;-4.00;99.90
75210;DHT22;63796;53.136;14.882;2022-12-18T05:29:40;-4.40;99.90
75210;DHT22;63796;53.136;14.882;2022-12-18T05:32:07;-4.40;99.90
75210;DHT22;63796;53.136;14.882;2022-12-18T05:34:34;-4.20;99.90
75210;DHT22;63796;53.136;14.882;2022-12-18T05:37:04;-3.90;99.90
75210;DHT22;63796;53.136;14.882;2022-12-18T05:39:31;-4.00;99.90
75210;DHT22;63796;53.136;14.882;2022-12-18T05:41:57;-4.20;99.90
75210;DHT22;63796;53.136;14.882;2022-12-18T05:44:24;-3.90;99.90
75210;DHT22;63796;53.136;14.882;2022-12-18T05:46:51;-4.00;99.90
75210;DHT22;63796;53.136;14.882;2022-12-18T05:49:18;-4.20;99.90
75210;DHT22;63796;53.136;14.882;2022-12-18T05:51:45;-4.20;99.90
75210;DHT22;63796;53.136;14.882;2022-12-18T05:54:12;-4.20;99.90
75210;DHT22;63796;53.136;14.882;2022-12-18T05:56:38;-4.20;99.90
75210;DHT22;63796;53.136;14.882;2022-12-18T05:59:05;-4.10;99.90
75210;DHT22;63796;53.136;14.882;2022-12-18T06:01:32;-4.30;99.90
75210;DHT22;63796;53.136;14.882;2022-12-18T06:03:59;-4.30;99.90
75210;DHT22;63796;53.136;14.882;2022-12-18T06:06:27;-4.00;99.90
75210;DHT22;63796;53.136;14.882;2022-12-18T06:08:56;-3.90;99.90
75210;DHT22;63796;53.136;14.882;2022-12-18T06:11:25;-3.90;99.90
75210;DHT22;63796;53.136;14.882;2022-12-18T06:13:53;-3.90;99.90
75210;DHT22;63796;53.136;14.882;2022-12-18T06:16:22;-4.20;99.90
75210;DHT22;63796;53.136;14.882;2022-12-18T06:18:48;-4.20;99.90
75210;DHT22;63796;53.136;14.882;2022-12-18T06:21:15;-4.40;99.90
75210;DHT22;63796;53.136;14.882;2022-12-18T06:23:42;-4.10;99.90
75210;DHT22;63796;53.136;14.882;2022-12-18T06:26:11;-3.90;99.90
75210;DHT22;63796;53.136;14.882;2022-12-18T06:28:39;-3.90;99.90
75210;DHT22;63796;53.136;14.882;2022-12-18T06:31:07;-3.90;99.90
75210;DHT22;63796;53.136;14.882;2022-12-18T06:33:35;-3.70;99.90
75210;DHT22;63796;53.136;14.882;2022-12-18T06:36:11;-3.80;99.90
75210;DHT22;63796;53.136;14.882;2022-12-18T06:38:38;-3.80;99.90
75210;DHT22;63796;53.136;14.882;2022-12-18T06:41:08;-4.00;99.90
75210;DHT22;63796;53.136;14.882;2022-12-18T06:43:37;-4.00;99.90
75210;DHT22;63796;53.136;14.882;2022-12-18T06:46:04;-4.00;99.90
75210;DHT22;63796;53.136;14.882;2022-12-18T06:48:32;-4.00;99.90
75210;DHT22;63796;53.136;14.882;2022-12-18T06:50:59;-4.00;99.90
75210;DHT22;63796;53.136;14.882;2022-12-18T06:53:27;-3.90;99.90
75210;DHT22;63796;53.136;14.882;2022-12-18T06:56:05;-3.90;99.90
75210;DHT22;63796;53.136;14.882;2022-12-18T06:58:33;-3.90;99.90
75210;DHT22;63796;53.136;14.882;2022-12-18T07:01:03;-3.80;99.90
75210;DHT22;63796;53.136;14.882;2022-12-18T07:03:31;-3.80;99.90
75210;DHT22;63796;53.136;14.882;2022-12-18T07:05:58;-3.90;99.90
75210;DHT22;63796;53.136;14.882;2022-12-18T07:08:25;-3.90;99.90
75210;DHT22;63796;53.136;14.882;2022-12-18T07:10:52;-3.70;99.90
75210;DHT22;63796;53.136;14.882;2022-12-18T07:13:20;-3.90;99.90
75210;DHT22;63796;53.136;14.882;2022-12-18T07:15:47;-3.90;99.90
75210;DHT22;63796;53.136;14.882;2022-12-18T07:18:13;-4.10;99.90
75210;DHT22;63796;53.136;14.882;2022-12-18T07:20:40;-4.00;99.90
75210;DHT22;63796;53.136;14.882;2022-12-18T07:23:07;-3.90;99.90
75210;DHT22;63796;53.136;14.882;2022-12-18T07:25:35;-4.00;99.90
75210;DHT22;63796;53.136;14.882;2022-12-18T07:28:03;-4.30;99.90
75210;DHT22;63796;53.136;14.882;2022-12-18T07:30:31;-4.30;99.90
75210;DHT22;63796;53.136;14.882;2022-12-18T07:32:57;-4.20;99.90
75210;DHT22;63796;53.136;14.882;2022-12-18T07:35:24;-4.10;99.90
75210;DHT22;63796;53.136;14.882;2022-12-18T07:37:51;-4.10;99.90
75210;DHT22;63796;53.136;14.882;2022-12-18T07:40:18;-4.30;99.90
75210;DHT22;63796;53.136;14.882;2022-12-18T07:42:45;-4.10;99.90
75210;DHT22;63796;53.136;14.882;2022-12-18T07:45:12;-4.10;99.90
75210;DHT22;63796;53.136;14.882;2022-12-18T07:47:39;-4.20;99.90
75210;DHT22;63796;53.136;14.882;2022-12-18T07:50:07;-4.30;99.90
75210;DHT22;63796;53.136;14.882;2022-12-18T07:52:34;-4.30;99.90
75210;DHT22;63796;53.136;14.882;2022-12-18T07:55:01;-4.20;99.90
75210;DHT22;63796;53.136;14.882;2022-12-18T07:57:29;-4.20;99.90
75210;DHT22;63796;53.136;14.882;2022-12-18T07:59:56;-4.00;99.90
75210;DHT22;63796;53.136;14.882;2022-12-18T08:02:23;-4.00;99.90
75210;DHT22;63796;53.136;14.882;2022-12-18T08:04:50;-4.00;99.90
75210;DHT22;63796;53.136;14.882;2022-12-18T08:07:17;-4.00;99.90
75210;DHT22;63796;53.136;14.882;2022-12-18T08:09:44;-4.00;99.90
75210;DHT22;63796;53.136;14.882;2022-12-18T08:12:10;-4.10;99.90
75210;DHT22;63796;53.136;14.882;2022-12-18T08:14:37;-4.10;99.90
75210;DHT22;63796;53.136;14.882;2022-12-18T08:17:04;-4.20;99.90
75210;DHT22;63796;53.136;14.882;2022-12-18T08:19:31;-4.10;99.90
75210;DHT22;63796;53.136;14.882;2022-12-18T08:21:58;-4.10;99.90
75210;DHT22;63796;53.136;14.882;2022-12-18T08:24:25;-4.10;99.90
75210;DHT22;63796;53.136;14.882;2022-12-18T08:26:52;-3.90;99.90
75210;DHT22;63796;53.136;14.882;2022-12-18T08:29:18;-3.90;99.90
75210;DHT22;63796;53.136;14.882;2022-12-18T08:31:45;-3.80;99.90
75210;DHT22;63796;53.136;14.882;2022-12-18T08:34:12;-3.90;99.90
75210;DHT22;63796;53.136;14.882;2022-12-18T08:36:39;-3.90;99.90
75210;DHT22;63796;53.136;14.882;2022-12-18T08:39:06;-3.80;99.90
75210;DHT22;63796;53.136;14.882;2022-12-18T08:41:33;-3.70;99.90
75210;DHT22;63796;53.136;14.882;2022-12-18T08:44:00;-3.80;99.90
75210;DHT22;63796;53.136;14.882;2022-12-18T08:46:44;-3.70;99.90
75210;DHT22;63796;53.136;14.882;2022-12-18T08:49:11;-3.60;99.90
75210;DHT22;63796;53.136;14.882;2022-12-18T08:51:39;-3.60;99.90
75210;DHT22;63796;53.136;14.882;2022-12-18T08:54:06;-3.70;99.90
75210;DHT22;63796;53.136;14.882;2022-12-18T08:56:34;-3.80;99.90
75210;DHT22;63796;53.136;14.882;2022-12-18T08:59:01;-4.30;99.90
75210;DHT22;63796;53.136;14.882;2022-12-18T09:01:28;-4.40;99.90
75210;DHT22;63796;53.136;14.882;2022-12-18T09:03:54;-4.20;99.90
75210;DHT22;63796;53.136;14.882;2022-12-18T09:06:22;-4.00;99.90
75210;DHT22;63796;53.136;14.882;2022-12-18T09:08:49;-3.90;99.90
75210;DHT22;63796;53.136;14.882;2022-12-18T09:11:26;-4.20;99.90
75210;DHT22;63796;53.136;14.882;2022-12-18T09:13:52;-4.20;99.90
75210;DHT22;63796;53.136;14.882;2022-12-18T09:16:20;-4.10;99.90
75210;DHT22;63796;53.136;14.882;2022-12-18T09:18:48;-4.20;99.90
75210;DHT22;63796;53.136;14.882;2022-12-18T09:21:17;-4.30;99.90
75210;DHT22;63796;53.136;14.882;2022-12-18T09:23:53;-4.20;99.90
75210;DHT22;63796;53.136;14.882;2022-12-18T09:26:18;-4.20;99.90
75210;DHT22;63796;53.136;14.882;2022-12-18T09:28:45;-4.10;99.90
75210;DHT22;63796;53.136;14.882;2022-12-18T09:31:12;-3.80;99.90
75210;DHT22;63796;53.136;14.882;2022-12-18T09:33:40;-3.80;99.90
75210;DHT22;63796;53.136;14.882;2022-12-18T09:36:09;-3.70;99.90
75210;DHT22;63796;53.136;14.882;2022-12-18T09:38:37;-4.00;99.90
75210;DHT22;63796;53.136;14.882;2022-12-18T09:47:10;-4.10;99.90
75210;DHT22;63796;53.136;14.882;2022-12-18T09:49:43;-4.10;99.90
75210;DHT22;63796;53.136;14.882;2022-12-18T09:52:27;-4.10;99.90
75210;DHT22;63796;53.136;14.882;2022-12-18T09:55:22;-4.10;99.90
75210;DHT22;63796;53.136;14.882;2022-12-18T09:58:16;-4.30;99.90
75210;DHT22;63796;53.136;14.882;2022-12-18T10:00:58;-4.20;99.90
75210;DHT22;63796;53.136;14.882;2022-12-18T10:03:25;-3.90;99.90
75210;DHT22;63796;53.136;14.882;2022-12-18T10:11:53;-4.00;99.90
75210;DHT22;63796;53.136;14.882;2022-12-18T10:14:29;-4.00;99.90
75210;DHT22;63796;53.136;14.882;2022-12-18T10:20:37;-3.80;99.90
75210;DHT22;63796;53.136;14.882;2022-12-18T10:26:05;-3.70;99.90
75210;DHT22;63796;53.136;14.882;2022-12-18T10:28:40;-3.60;99.90
75210;DHT22;63796;53.136;14.882;2022-12-18T10:31:14;-3.60;99.90
75210;DHT22;63796;53.136;14.882;2022-12-18T10:33:45;-3.60;99.90
75210;DHT22;63796;53.136;14.882;2022-12-18T10:36:12;-3.70;99.90
75210;DHT22;63796;53.136;14.882;2022-12-18T10:38:39;-3.70;99.90
75210;DHT22;63796;53.136;14.882;2022-12-18T10:46:38;-3.80;99.90
75210;DHT22;63796;53.136;14.882;2022-12-18T10:49:05;-3.60;99.90
75210;DHT22;63796;53.136;14.882;2022-12-18T10:51:36;-3.50;99.90
75210;DHT22;63796;53.136;14.882;2022-12-18T10:54:06;-3.40;99.90
75210;DHT22;63796;53.136;14.882;2022-12-18T10:56:41;-3.20;99.90
75210;DHT22;63796;53.136;14.882;2022-12-18T10:59:10;-3.50;99.90
75210;DHT22;63796;53.136;14.882;2022-12-18T11:01:56;-3.50;99.90
75210;DHT22;63796;53.136;14.882;2022-12-18T11:04:26;-3.70;99.90
75210;DHT22;63796;53.136;14.882;2022-12-18T11:06:57;-3.70;99.90
75210;DHT22;63796;53.136;14.882;2022-12-18T11:09:36;-3.60;99.90
75210;DHT22;63796;53.136;14.882;2022-12-18T11:12:19;-3.50;99.90
75210;DHT22;63796;53.136;14.882;2022-12-18T11:14:52;-3.60;99.90
75210;DHT22;63796;53.136;14.882;2022-12-18T11:17:34;-3.70;99.90
75210;DHT22;63796;53.136;14.882;2022-12-18T11:20:01;-3.50;99.90
75210;DHT22;63796;53.136;14.882;2022-12-18T11:22:33;-3.50;99.90
75210;DHT22;63796;53.136;14.882;2022-12-18T11:25:05;-3.50;99.90
75210;DHT22;63796;53.136;14.882;2022-12-18T11:27:40;-3.60;99.90
75210;DHT22;63796;53.136;14.882;2022-12-18T11:30:22;-3.40;99.90
75210;DHT22;63796;53.136;14.882;2022-12-18T11:32:59;-3.40;99.90
75210;DHT22;63796;53.136;14.882;2022-12-18T11:35:52;-3.40;99.90
75210;DHT22;63796;53.136;14.882;2022-12-18T11:38:31;-3.50;99.90
75210;DHT22;63796;53.136;14.882;2022-12-18T11:43:47;-3.80;99.90
75210;DHT22;63796;53.136;14.882;2022-12-18T11:46:32;-3.90;99.90
75210;DHT22;63796;53.136;14.882;2022-12-18T11:49:18;-3.70;99.90
75210;DHT22;63796;53.136;14.882;2022-12-18T11:54:33;-3.40;99.90
75210;DHT22;63796;53.136;14.882;2022-12-18T11:57:25;-3.60;99.90
75210;DHT22;63796;53.136;14.882;2022-12-18T12:08:54;-3.50;99.90
75210;DHT22;63796;53.136;14.882;2022-12-18T12:11:39;-3.40;99.90
75210;DHT22;63796;53.136;14.882;2022-12-18T12:14:51;-3.40;99.90
75210;DHT22;63796;53.136;14.882;2022-12-18T12:17:42;-3.50;99.90
75210;DHT22;63796;53.136;14.882;2022-12-18T12:25:47;-3.50;99.90
75210;DHT22;63796;53.136;14.882;2022-12-18T12:31:25;-3.60;99.90
75210;DHT22;63796;53.136;14.882;2022-12-18T12:33:59;-3.50;99.90
75210;DHT22;63796;53.136;14.882;2022-12-18T12:39:17;-3.50;99.90
75210;DHT22;63796;53.136;14.882;2022-12-18T12:41:46;-3.50;99.90
75210;DHT22;63796;53.136;14.882;2022-12-18T12:44:38;-3.50;99.90
75210;DHT22;63796;53.136;14.882;2022-12-18T12:47:32;-3.50;99.90
75210;DHT22;63796;53.136;14.882;2022-12-18T12:49:51;-3.60;99.90
75210;DHT22;63796;53.136;14.882;2022-12-18T12:52:30;-3.40;99.90
75210;DHT22;63796;53.136;14.882;2022-12-18T12:55:04;-3.40;99.90
75210;DHT22;63796;53.136;14.882;2022-12-18T12:57:37;-3.10;99.90
75210;DHT22;63796;53.136;14.882;2022-12-18T13:00:17;-3.40;99.90
75210;DHT22;63796;53.136;14.882;2022-12-18T13:05:50;-3.60;99.90
75210;DHT22;63796;53.136;14.882;2022-12-18T13:08:25;-3.50;99.90
75210;DHT22;63796;53.136;14.882;2022-12-18T13:10:55;-3.50;99.90
75210;DHT22;63796;53.136;14.882;2022-12-18T13:13:27;-3.70;99.90
75210;DHT22;63796;53.136;14.882;2022-12-18T13:16:06;-3.60;99.90
75210;DHT22;63796;53.136;14.882;2022-12-18T13:18:34;-3.60;99.90
75210;DHT22;63796;53.136;14.882;2022-12-18T13:21:26;-3.80;99.90
75210;DHT22;63796;53.136;14.882;2022-12-18T13:23:42;-3.70;99.90
75210;DHT22;63796;53.136;14.882;2022-12-18T13:28:54;-3.70;99.90
75210;DHT22;63796;53.136;14.882;2022-12-18T13:34:20;-3.60;99.90
75210;DHT22;63796;53.136;14.882;2022-12-18T13:36:52;-3.70;99.90
75210;DHT22;63796;53.136;14.882;2022-12-18T13:39:22;-3.50;99.90
75210;DHT22;63796;53.136;14.882;2022-12-18T13:44:37;-3.60;99.90
75210;DHT22;63796;53.136;14.882;2022-12-18T13:47:25;-3.30;99.90
75210;DHT22;63796;53.136;14.882;2022-12-18T13:49:54;-3.40;99.90
75210;DHT22;63796;53.136;14.882;2022-12-18T13:52:26;-3.50;99.90
75210;DHT22;63796;53.136;14.882;2022-12-18T13:54:59;-3.60;99.90
75210;DHT22;63796;53.136;14.882;2022-12-18T14:02:52;-3.70;99.90
75210;DHT22;63796;53.136;14.882;2022-12-18T14:05:30;-3.70;99.90
75210;DHT22;63796;53.136;14.882;2022-12-18T14:08:03;-3.60;99.90
75210;DHT22;63796;53.136;14.882;2022-12-18T14:10:32;-3.60;99.90
75210;DHT22;63796;53.136;14.882;2022-12-18T14:13:04;-3.60;99.90
75210;DHT22;63796;53.136;14.882;2022-12-18T14:15:35;-3.60;99.90
75210;DHT22;63796;53.136;14.882;2022-12-18T14:21:03;-3.50;99.90
75210;DHT22;63796;53.136;14.882;2022-12-18T14:23:36;-3.50;99.90
75210;DHT22;63796;53.136;14.882;2022-12-18T14:26:26;-3.50;99.90
75210;DHT22;63796;53.136;14.882;2022-12-18T14:28:56;-3.50;99.90
75210;DHT22;63796;53.136;14.882;2022-12-18T14:31:26;-3.60;99.90
75210;DHT22;63796;53.136;14.882;2022-12-18T14:33:54;-3.70;99.90
75210;DHT22;63796;53.136;14.882;2022-12-18T14:36:24;-3.70;99.90
75210;DHT22;63796;53.136;14.882;2022-12-18T14:38:54;-3.70;99.90
75210;DHT22;63796;53.136;14.882;2022-12-18T14:41:23;-3.60;99.90
75210;DHT22;63796;53.136;14.882;2022-12-18T14:43:53;-3.70;99.90
75210;DHT22;63796;53.136;14.882;2022-12-18T14:46:42;-3.70;99.90
75210;DHT22;63796;53.136;14.882;2022-12-18T14:54:30;-3.70;99.90
75210;DHT22;63796;53.136;14.882;2022-12-18T14:57:05;-3.60;99.90
75210;DHT22;63796;53.136;14.882;2022-12-18T14:59:42;-3.40;99.90
75210;DHT22;63796;53.136;14.882;2022-12-18T15:02:23;-3.50;99.90
75210;DHT22;63796;53.136;14.882;2022-12-18T15:05:04;-3.40;99.90
75210;DHT22;63796;53.136;14.882;2022-12-18T15:07:48;-3.60;99.90
75210;DHT22;63796;53.136;14.882;2022-12-18T15:18:16;-3.70;99.90
75210;DHT22;63796;53.136;14.882;2022-12-18T15:20:54;-3.70;99.90
75210;DHT22;63796;53.136;14.882;2022-12-18T15:26:13;-3.60;99.90
75210;DHT22;63796;53.136;14.882;2022-12-18T15:28:52;-3.60;99.90
75210;DHT22;63796;53.136;14.882;2022-12-18T15:31:33;-3.70;99.90
75210;DHT22;63796;53.136;14.882;2022-12-18T15:34:09;-3.80;99.90
75210;DHT22;63796;53.136;14.882;2022-12-18T15:36:38;-3.80;99.90
75210;DHT22;63796;53.136;14.882;2022-12-18T15:39:05;-3.80;99.90
75210;DHT22;63796;53.136;14.882;2022-12-18T15:41:34;-3.90;99.90
75210;DHT22;63796;53.136;14.882;2022-12-18T15:44:02;-4.10;99.90
75210;DHT22;63796;53.136;14.882;2022-12-18T15:46:30;-4.00;99.90
75210;DHT22;63796;53.136;14.882;2022-12-18T15:48:57;-3.90;99.90
75210;DHT22;63796;53.136;14.882;2022-12-18T15:51:35;-3.90;99.90
75210;DHT22;63796;53.136;14.882;2022-12-18T15:54:05;-3.90;99.90
75210;DHT22;63796;53.136;14.882;2022-12-18T15:56:35;-3.80;99.90
75210;DHT22;63796;53.136;14.882;2022-12-18T15:59:21;-3.80;99.90
75210;DHT22;63796;53.136;14.882;2022-12-18T16:01:51;-3.70;99.90
75210;DHT22;63796;53.136;14.882;2022-12-18T16:04:22;-3.70;99.90
75210;DHT22;63796;53.136;14.882;2022-12-18T16:06:49;-3.70;99.90
75210;DHT22;63796;53.136;14.882;2022-12-18T16:09:17;-3.60;99.90
75210;DHT22;63796;53.136;14.882;2022-12-18T16:11:44;-3.70;99.90
75210;DHT22;63796;53.136;14.882;2022-12-18T16:14:19;-3.90;99.90
75210;DHT22;63796;53.136;14.882;2022-12-18T16:16:50;-4.00;99.90
75210;DHT22;63796;53.136;14.882;2022-12-18T16:19:19;-4.00;99.90
75210;DHT22;63796;53.136;14.882;2022-12-18T16:21:47;-4.00;99.90
75210;DHT22;63796;53.136;14.882;2022-12-18T16:24:19;-4.10;99.90
75210;DHT22;63796;53.136;14.882;2022-12-18T16:26:48;-4.00;99.90
75210;DHT22;63796;53.136;14.882;2022-12-18T16:29:18;-4.00;99.90
75210;DHT22;63796;53.136;14.882;2022-12-18T16:31:47;-4.00;99.90
75210;DHT22;63796;53.136;14.882;2022-12-18T16:34:22;-4.00;99.90
75210;DHT22;63796;53.136;14.882;2022-12-18T16:36:59;-4.00;99.90
75210;DHT22;63796;53.136;14.882;2022-12-18T16:39:27;-3.80;99.90
75210;DHT22;63796;53.136;14.882;2022-12-18T16:41:54;-3.80;99.90
75210;DHT22;63796;53.136;14.882;2022-12-18T16:44:21;-3.80;99.90
75210;DHT22;63796;53.136;14.882;2022-12-18T16:46:48;-3.80;99.90
75210;DHT22;63796;53.136;14.882;2022-12-18T16:49:16;-3.80;99.90
75210;DHT22;63796;53.136;14.882;2022-12-18T16:51:47;-4.00;99.90
75210;DHT22;63796;53.136;14.882;2022-12-18T16:54:14;-3.90;99.90
75210;DHT22;63796;53.136;14.882;2022-12-18T16:56:41;-3.90;99.90
75210;DHT22;63796;53.136;14.882;2022-12-18T16:59:09;-3.80;99.90
75210;DHT22;63796;53.136;14.882;2022-12-18T17:01:38;-4.00;99.90
75210;DHT22;63796;53.136;14.882;2022-12-18T17:04:07;-4.00;99.90
75210;DHT22;63796;53.136;14.882;2022-12-18T17:06:40;-3.90;99.90
75210;DHT22;63796;53.136;14.882;2022-12-18T17:09:13;-3.90;99.90
75210;DHT22;63796;53.136;14.882;2022-12-18T17:11:45;-3.80;99.90
75210;DHT22;63796;53.136;14.882;2022-12-18T17:14:19;-4.00;99.90
75210;DHT22;63796;53.136;14.882;2022-12-18T17:16:44;-4.00;99.90
75210;DHT22;63796;53.136;14.882;2022-12-18T17:19:11;-4.00;99.90
75210;DHT22;63796;53.136;14.882;2022-12-18T17:21:39;-4.00;99.90